Time;durP1;ratioP1;P1;durP2;ratioP2;P2;SDS_P1;SDS_P2;PMS_P1;PMS_P2;Temp;Humidity;BMP_temperature;BMP_pressure;BME280_temperature;BME280_humidity;BME280_pressure;Samples;Min_cycle;Max_cycle;Signal;HPM_P1;HPM_P2
2021/08/15 00:01:23;;;;;;;8.27;4.55;;;18.10;99.90;;;17.98;91.98;101413.91;4115202;28;20029;-72
2021/08/15 00:03:24;;;;;;;7.95;4.85;;;18.00;99.90;;;17.84;92.40;101417.41;4120640;28;20038;-71
2021/08/15 00:05:25;;;;;;;9.25;4.38;;;18.00;99.90;;;17.75;93.01;101413.19;4120572;28;20035;-72
2021/08/15 00:07:26;;;;;;;10.75;4.15;;;17.90;99.90;;;17.79;92.10;101425.16;4120735;28;20034;-72
2021/08/15 00:09:27;;;;;;;10.35;5.28;;;17.90;99.90;;;17.83;91.21;101418.44;4120625;28;20113;-72
2021/08/15 00:11:28;;;;;;;8.13;4.20;;;17.80;99.90;;;17.69;91.95;101417.44;4121695;28;20062;-72
2021/08/15 00:13:29;;;;;;;8.18;4.60;;;17.80;99.90;;;17.77;89.92;101400.50;4121648;28;20026;-72
2021/08/15 00:15:29;;;;;;;9.50;4.90;;;17.80;99.90;;;17.65;89.96;101414.31;4120586;28;20023;-72
2021/08/15 00:17:30;;;;;;;7.75;4.30;;;17.80;99.90;;;17.63;89.43;101420.84;4120608;28;20122;-72
2021/08/15 00:19:31;;;;;;;8.70;4.57;;;17.70;99.90;;;17.58;90.37;101413.41;4136420;28;20106;-72
2021/08/15 00:21:37;;;;;;;9.25;4.18;;;17.70;99.90;;;17.55;90.25;101411.13;4120390;28;20034;-72
2021/08/15 00:23:38;;;;;;;7.28;3.97;;;17.60;99.90;;;17.58;88.99;101415.25;4121791;28;20027;-72
2021/08/15 00:25:39;;;;;;;8.93;4.80;;;17.70;99.90;;;17.52;90.03;101422.13;4120471;28;20050;-72
2021/08/15 00:27:40;;;;;;;8.00;4.60;;;17.60;99.90;;;17.38;90.48;101422.94;4120474;28;20035;-72
2021/08/15 00:29:41;;;;;;;9.60;3.88;;;17.60;99.90;;;17.25;90.58;101412.09;4136405;28;20027;-72
2021/08/15 00:31:42;;;;;;;6.38;3.72;;;17.40;99.90;;;17.23;90.21;101413.28;4152657;28;20441;-72
2021/08/15 00:33:43;;;;;;;7.50;4.35;;;17.40;99.90;;;17.26;89.68;101404.91;4136346;28;20105;-72
2021/08/15 00:35:43;;;;;;;9.68;4.47;;;17.40;99.90;;;17.37;87.20;101404.47;4120288;28;20023;-72
2021/08/15 00:37:45;;;;;;;9.60;4.38;;;17.40;99.90;;;17.33;86.79;101403.16;4121222;28;20030;-71
2021/08/15 00:39:45;;;;;;;7.70;4.15;;;17.40;99.90;;;17.28;87.21;101401.06;4121352;28;20058;-72
2021/08/15 00:41:46;;;;;;;7.22;3.58;;;17.30;99.90;;;17.28;87.11;101389.56;4136013;28;20045;-72
2021/08/15 00:43:47;;;;;;;6.65;3.80;;;17.40;99.90;;;17.35;85.90;101404.63;4120223;28;20525;-72
2021/08/15 00:45:48;;;;;;;8.75;4.40;;;17.40;99.90;;;17.22;86.95;101399.13;4136084;28;20026;-72
2021/08/15 00:47:49;;;;;;;5.65;3.67;;;17.30;99.90;;;17.18;87.13;101400.50;4121300;28;20038;-72
2021/08/15 00:49:50;;;;;;;8.68;4.05;;;17.30;99.90;;;17.09;87.76;101396.25;4119764;28;20491;-72
2021/08/15 00:51:51;;;;;;;5.68;3.97;;;17.20;99.90;;;16.91;88.64;101393.94;4121105;28;20491;-72
2021/08/15 00:53:52;;;;;;;7.80;3.47;;;17.10;99.90;;;16.93;89.13;101391.09;4120034;28;20035;-72
2021/08/15 00:55:53;;;;;;;8.10;4.32;;;17.10;99.90;;;16.88;89.82;101388.97;4120003;28;20096;-72
2021/08/15 00:57:54;;;;;;;8.80;3.95;;;17.10;99.90;;;17.00;89.74;101398.19;4152180;28;20018;-72
2021/08/15 01:00:08;;;;;;;7.03;3.50;;;17.00;99.90;;;16.93;89.65;101389.28;4136003;28;20032;-72
2021/08/15 01:02:10;;;;;;;19.10;4.78;;;17.00;99.90;;;16.73;90.32;101396.09;4119660;28;20027;-72
2021/08/15 01:04:11;;;;;;;7.88;3.65;;;17.00;99.90;;;16.60;91.33;101390.56;4119678;28;20042;-72
2021/08/15 01:06:12;;;;;;;8.05;3.85;;;16.90;99.90;;;16.57;91.42;101396.25;4119912;28;20131;-72
2021/08/15 01:08:13;;;;;;;7.28;3.92;;;16.80;99.90;;;16.49;91.50;101383.78;4121029;28;20039;-72
2021/08/15 01:10:16;;;;;;;7.30;4.00;;;16.70;99.90;;;16.48;91.85;101387.47;4120836;28;20031;-72
2021/08/15 01:12:17;;;;;;;10.93;4.40;;;16.70;99.90;;;16.46;92.09;101391.28;4119792;28;20426;-72
2021/08/15 01:14:18;;;;;;;6.53;3.70;;;16.60;99.90;;;16.51;91.72;101389.78;4120940;28;20305;-72
2021/08/15 01:16:19;;;;;;;9.73;3.75;;;16.60;99.90;;;16.51;91.61;101387.13;4119710;28;20022;-72
2021/08/15 01:18:25;;;;;;;10.02;4.57;;;16.60;99.90;;;16.42;91.43;101374.88;4120751;28;20110;-72
2021/08/15 01:20:25;;;;;;;8.07;3.90;;;16.60;99.90;;;16.36;91.53;101372.09;4120701;28;20050;-72
2021/08/15 01:22:28;;;;;;;6.85;3.78;;;16.50;99.90;;;16.17;92.02;101378.69;4120743;28;20038;-72
2021/08/15 01:24:29;;;;;;;7.70;3.78;;;16.40;99.90;;;16.08;92.50;101369.13;4119474;28;20034;-72
2021/08/15 01:26:31;;;;;;;5.93;3.70;;;16.40;99.90;;;16.08;92.52;101363.78;4119312;28;20031;-72
2021/08/15 01:28:31;;;;;;;7.05;3.75;;;16.30;99.90;;;16.15;92.31;101363.91;4103431;28;20117;-72
2021/08/15 01:30:32;;;;;;;6.90;3.65;;;16.30;99.90;;;16.14;92.52;101365.75;4119341;28;20030;-72
2021/08/15 01:32:34;;;;;;;7.82;3.83;;;16.30;99.90;;;16.28;91.83;101372.94;4119335;28;20518;-72
2021/08/15 01:34:35;;;;;;;6.18;3.90;;;16.30;99.90;;;16.28;92.22;101364.97;4118946;28;20576;-72
2021/08/15 01:36:36;;;;;;;6.20;3.70;;;16.30;99.90;;;16.30;91.94;101367.47;4103265;29;20031;-72
2021/08/15 01:38:39;;;;;;;7.93;3.85;;;16.40;99.90;;;16.18;91.72;101369.72;4120484;28;20027;-71
2021/08/15 01:40:40;;;;;;;6.70;3.97;;;16.30;99.90;;;16.02;92.60;101377.81;4119165;28;20050;-72
2021/08/15 01:42:41;;;;;;;7.88;3.88;;;16.20;99.90;;;15.87;92.87;101376.88;4135023;28;20057;-72
2021/08/15 01:44:42;;;;;;;7.75;3.65;;;16.10;99.90;;;15.84;92.88;101374.56;4120385;28;20081;-71
2021/08/15 01:46:42;;;;;;;7.28;3.72;;;16.10;99.90;;;15.72;93.19;101368.00;4119285;28;20106;-72
2021/08/15 01:48:44;;;;;;;7.80;3.63;;;16.00;99.90;;;15.72;92.89;101371.47;4118775;28;20038;-72
2021/08/15 01:50:46;;;;;;;9.98;3.80;;;15.90;99.90;;;15.72;93.12;101368.00;4118386;28;20034;-72
2021/08/15 01:52:46;;;;;;;6.63;3.40;;;15.90;99.90;;;15.64;93.23;101362.72;4103787;28;20027;-71
2021/08/15 01:54:48;;;;;;;9.13;3.28;;;15.80;99.90;;;15.59;93.75;101367.75;4103120;28;20049;-72
2021/08/15 01:56:49;;;;;;;11.32;4.50;;;15.80;99.90;;;15.68;93.10;101364.03;4118917;28;20019;-72
2021/08/15 01:58:50;;;;;;;8.25;4.13;;;15.80;99.90;;;15.53;93.45;101368.44;4102880;28;20039;-71
2021/08/15 02:00:51;;;;;;;6.97;3.45;;;15.70;99.90;;;15.50;93.75;101377.59;4118913;28;20459;-71
2021/08/15 02:02:52;;;;;;;7.15;3.60;;;15.60;99.90;;;15.45;93.85;101372.72;4125633;28;20108;-71
2021/08/15 02:04:52;;;;;;;5.40;3.97;;;15.60;99.90;;;15.37;94.04;101366.63;4118670;28;20031;-72
2021/08/15 02:06:53;;;;;;;8.55;4.07;;;15.60;99.90;;;15.39;94.08;101369.94;4150962;28;20038;-71
2021/08/15 02:08:54;;;;;;;6.10;3.78;;;15.50;99.90;;;15.35;93.97;101358.81;4120114;28;20031;-71
2021/08/15 02:10:55;;;;;;;10.32;5.20;;;15.50;99.90;;;15.33;94.27;101358.16;4120086;28;20038;-72
2021/08/15 02:13:00;;;;;;;10.45;4.47;;;15.50;99.90;;;15.32;94.20;101361.81;4118758;28;20062;-71
2021/08/15 02:15:01;;;;;;;8.77;4.47;;;15.50;99.90;;;15.25;94.49;101366.16;4118706;28;20041;-72
2021/08/15 02:17:02;;;;;;;7.68;3.88;;;15.50;99.90;;;15.22;94.72;101363.84;4118820;28;20023;-72
2021/08/15 02:19:03;;;;;;;10.05;4.88;;;15.40;99.90;;;15.20;95.10;101373.81;4119703;28;20101;-72
2021/08/15 02:21:05;;;;;;;9.55;4.43;;;15.40;99.90;;;15.16;95.51;101377.00;4119888;28;20391;-72
2021/08/15 02:23:07;;;;;;;8.60;4.40;;;15.40;99.90;;;15.32;95.07;101372.44;4119785;28;20034;-72
2021/08/15 02:25:10;;;;;;;9.95;4.55;;;15.40;99.90;;;15.38;94.89;101374.41;4131359;28;20486;-72
2021/08/15 02:27:11;;;;;;;13.10;5.22;;;15.40;99.90;;;15.47;94.15;101378.72;4086854;29;20031;-72
2021/08/15 02:29:12;;;;;;;8.35;4.35;;;15.40;99.90;;;15.30;94.69;101362.97;4103771;28;20562;-72
2021/08/15 02:31:13;;;;;;;8.65;4.60;;;15.50;99.90;;;15.21;95.18;101372.81;4131529;28;20038;-72
2021/08/15 02:33:14;;;;;;;9.98;4.07;;;15.40;99.90;;;15.20;95.33;101368.50;4119759;28;20034;-72
2021/08/15 02:35:16;;;;;;;7.47;4.43;;;15.40;99.90;;;15.38;94.05;101373.59;4119498;28;20030;-72
2021/08/15 02:37:18;;;;;;;10.68;4.82;;;15.40;99.90;;;15.44;94.00;101371.06;4118492;28;20035;-72
2021/08/15 02:39:19;;;;;;;7.63;4.25;;;15.40;99.90;;;15.43;93.53;101364.13;4119606;28;20018;-72
2021/08/15 02:41:20;;;;;;;7.80;4.07;;;15.40;99.90;;;15.56;92.23;101373.41;4118306;28;20038;-72
2021/08/15 02:43:21;;;;;;;10.75;4.82;;;15.50;99.90;;;15.49;92.52;101355.47;4118368;28;20031;-72
2021/08/15 02:45:25;;;;;;;8.32;4.15;;;15.50;99.90;;;15.41;92.79;101363.44;4119701;28;20030;-72
2021/08/15 02:47:26;;;;;;;8.93;4.40;;;15.50;99.90;;;15.65;91.35;101359.06;4119538;28;20031;-72
2021/08/15 02:49:27;;;;;;;11.75;4.93;;;15.50;99.90;;;15.75;91.10;101362.31;4119466;28;20397;-72
2021/08/15 02:51:28;;;;;;;8.07;4.25;;;15.60;99.90;;;15.80;90.31;101354.66;4118463;28;20474;-72
2021/08/15 02:53:28;;;;;;;6.43;4.13;;;15.60;99.90;;;15.86;89.21;101360.09;4119559;28;20078;-72
2021/08/15 02:55:29;;;;;;;9.65;4.60;;;15.70;99.90;;;15.62;90.87;101356.75;4102273;28;20051;-72
2021/08/15 02:57:30;;;;;;;8.20;3.85;;;15.70;99.90;;;15.61;91.16;101360.41;4119472;28;20031;-72
2021/08/15 02:59:38;;;;;;;8.68;4.78;;;15.60;99.90;;;15.52;91.44;101348.16;4118497;28;20035;-72
2021/08/15 03:01:39;;;;;;;12.75;4.88;;;15.60;99.90;;;15.46;92.15;101353.13;4119576;28;20030;-72
2021/08/15 03:03:40;;;;;;;6.30;3.60;;;15.50;99.90;;;15.38;92.28;101353.16;4118132;28;20122;-72
2021/08/15 03:05:41;;;;;;;7.60;3.65;;;15.50;99.90;;;15.29;93.13;101362.16;4137295;28;20082;-72
2021/08/15 03:07:42;;;;;;;10.02;4.80;;;15.40;99.90;;;15.48;92.40;101351.16;4105428;28;20119;-72
2021/08/15 03:09:44;;;;;;;13.02;4.28;;;15.40;99.90;;;15.53;91.74;101349.81;4121510;28;20027;-72
2021/08/15 03:11:45;;;;;;;8.32;4.35;;;15.50;99.90;;;15.56;90.80;101344.94;4121269;28;20027;-72
2021/08/15 03:13:47;;;;;;;9.40;3.88;;;15.50;99.90;;;15.37;91.41;101362.13;4121233;28;20078;-72
2021/08/15 03:15:48;;;;;;;9.18;4.65;;;15.40;99.90;;;15.25;92.68;101355.53;4122808;28;20034;-72
2021/08/15 03:17:49;;;;;;;9.93;4.35;;;15.40;99.90;;;15.33;91.81;101358.16;4121509;28;20062;-72
2021/08/15 03:19:50;;;;;;;8.55;4.57;;;15.40;99.90;;;15.49;91.01;101350.16;4122456;28;20035;-72
2021/08/15 03:21:51;;;;;;;7.35;4.60;;;15.40;99.90;;;15.30;92.31;101357.66;4121348;28;20065;-72
2021/08/15 03:23:51;;;;;;;11.05;4.13;;;15.40;99.90;;;15.32;92.06;101356.50;4122655;28;20030;-72
2021/08/15 03:25:52;;;;;;;7.40;4.32;;;15.40;99.90;;;15.30;91.99;101353.19;4121639;28;20023;-72
2021/08/15 03:27:53;;;;;;;9.52;4.90;;;15.40;99.90;;;15.18;93.00;101341.25;4105344;29;20038;-72
2021/08/15 03:29:54;;;;;;;8.05;3.80;;;15.30;99.90;;;15.13;93.80;101350.75;4106561;28;20470;-72
2021/08/15 03:31:55;;;;;;;8.25;4.05;;;15.20;99.90;;;15.05;94.11;101343.66;4110335;28;20584;-71
2021/08/15 03:33:56;;;;;;;8.43;3.60;;;15.20;99.90;;;14.93;95.14;101337.84;4121130;28;20520;-71
2021/08/15 03:35:57;;;;;;;10.43;4.50;;;15.10;99.90;;;15.00;94.68;101356.59;4122565;28;20038;-72
2021/08/15 03:37:58;;;;;;;8.75;3.90;;;15.10;99.90;;;15.10;94.25;101346.63;4122333;28;20498;-72
2021/08/15 03:39:59;;;;;;;6.45;3.30;;;15.10;99.90;;;15.03;94.53;101352.75;4121328;28;20034;-72
2021/08/15 03:42:00;;;;;;;10.63;4.97;;;15.10;99.90;;;15.00;95.03;101345.97;4121051;28;20043;-72
2021/08/15 03:44:01;;;;;;;13.70;5.50;;;15.10;99.90;;;15.05;94.82;101345.47;4122360;28;20114;-72
2021/08/15 03:46:02;;;;;;;9.00;4.30;;;15.00;99.90;;;15.06;95.26;101350.59;4120990;28;20518;-72
2021/08/15 03:48:04;;;;;;;8.60;4.15;;;15.10;99.90;;;15.02;95.35;101344.00;4122496;28;20031;-72
2021/08/15 03:50:07;;;;;;;12.77;4.95;;;15.10;99.90;;;15.08;95.04;101348.63;4120829;28;20049;-72
2021/08/15 03:52:08;;;;;;;9.32;4.03;;;15.10;99.90;;;15.02;95.41;101349.31;4120914;28;20034;-72
2021/08/15 03:54:08;;;;;;;8.52;3.70;;;15.10;99.90;;;14.82;96.25;101340.03;4121988;28;20023;-72
2021/08/15 03:56:10;;;;;;;7.10;4.43;;;15.00;99.90;;;14.78;96.80;101355.47;4122178;28;20494;-72
2021/08/15 03:58:11;;;;;;;8.70;4.53;;;14.90;99.90;;;15.02;95.46;101349.31;4120925;28;20054;-72
2021/08/15 04:00:13;;;;;;;7.63;4.03;;;15.00;99.90;;;14.95;96.18;101345.66;4137059;28;20033;-72
2021/08/15 04:02:14;;;;;;;10.27;4.43;;;15.00;99.90;;;14.87;96.64;101346.47;4120543;28;20031;-72
2021/08/15 04:04:15;;;;;;;10.80;4.15;;;15.00;99.90;;;14.87;96.92;101357.09;4120688;28;20422;-72
2021/08/15 04:06:21;;;;;;;10.85;5.15;;;14.90;99.90;;;14.79;97.33;101349.16;4104749;29;20031;-72
2021/08/15 04:08:23;;;;;;;8.60;4.70;;;15.00;99.90;;;14.86;97.50;101347.50;4121964;28;20035;-73
2021/08/15 04:10:23;;;;;;;8.27;4.03;;;14.90;99.90;;;14.88;97.31;101347.31;4120591;28;20023;-72
2021/08/15 04:12:24;;;;;;;10.13;4.43;;;14.90;99.90;;;14.92;97.60;101349.47;4121902;28;20041;-72
2021/08/15 04:14:25;;;;;;;10.55;5.15;;;15.00;99.90;;;14.89;97.70;101338.34;4152863;28;20037;-72
2021/08/15 04:16:26;;;;;;;8.20;3.97;;;15.00;99.90;;;14.83;97.55;101345.19;4121432;28;20034;-72
2021/08/15 04:18:27;;;;;;;12.27;5.32;;;15.00;99.90;;;14.84;97.58;101346.03;4121499;28;20022;-72
2021/08/15 04:20:28;;;;;;;12.00;4.65;;;15.00;99.90;;;14.70;97.91;101344.03;4120879;28;20082;-72
2021/08/15 04:22:29;;;;;;;11.45;4.30;;;14.90;99.90;;;14.71;97.97;101358.97;4121940;28;20030;-72
2021/08/15 04:24:30;;;;;;;6.30;3.90;;;14.80;99.90;;;14.52;98.68;101346.03;4121906;28;20039;-72
2021/08/15 04:26:31;;;;;;;8.75;4.15;;;14.80;99.90;;;14.66;98.84;101346.22;4120515;28;20391;-72
2021/08/15 04:28:32;;;;;;;9.23;3.83;;;14.80;99.90;;;14.79;98.66;101353.63;4121899;28;20035;-72
2021/08/15 04:30:33;;;;;;;7.80;4.10;;;14.80;99.90;;;14.68;98.63;101346.88;4120743;28;20031;-72
2021/08/15 04:32:34;;;;;;;9.02;4.65;;;14.80;99.90;;;14.69;99.42;101358.31;4136543;28;20033;-72
2021/08/15 04:34:35;;;;;;;9.65;4.40;;;14.80;99.90;;;14.61;99.76;101355.66;4120045;28;20066;-72
2021/08/15 04:36:36;;;;;;;8.98;4.90;;;14.80;99.90;;;14.62;100.00;101358.16;4120235;28;20099;-72
2021/08/15 04:38:38;;;;;;;9.50;3.95;;;14.70;99.90;;;14.56;100.00;101353.50;4121804;28;20019;-72
2021/08/15 04:40:39;;;;;;;10.90;4.38;;;14.70;99.90;;;14.51;100.00;101339.09;4120472;28;20031;-72
2021/08/15 04:42:40;;;;;;;8.13;4.03;;;14.70;99.90;;;14.60;100.00;101346.03;4136285;28;20093;-72
2021/08/15 04:44:41;;;;;;;7.03;4.53;;;14.70;99.90;;;14.62;100.00;101352.84;4120339;28;20126;-72
2021/08/15 04:46:42;;;;;;;7.82;3.72;;;14.70;99.90;;;14.60;100.00;101346.03;4136465;28;20031;-72
2021/08/15 04:48:43;;;;;;;9.23;3.90;;;14.70;99.90;;;14.64;100.00;101355.31;4119960;28;20043;-72
2021/08/15 04:50:44;;;;;;;12.43;5.15;;;14.70;99.90;;;14.54;100.00;101357.34;4121268;28;20390;-72
2021/08/15 04:52:45;;;;;;;7.35;4.28;;;14.70;99.90;;;14.46;100.00;101349.34;4104017;28;20114;-72
2021/08/15 04:54:46;;;;;;;8.95;4.32;;;14.60;99.90;;;14.34;100.00;101349.69;4121377;28;20030;-72
2021/08/15 04:56:47;;;;;;;9.10;4.13;;;14.60;99.90;;;14.36;100.00;101360.16;4121286;28;20394;-72
2021/08/15 04:58:48;;;;;;;11.05;4.18;;;14.60;99.90;;;14.28;100.00;101354.78;4121187;28;20038;-72
2021/08/15 05:00:49;;;;;;;10.23;4.57;;;14.50;99.90;;;14.23;100.00;101360.59;4120071;28;20054;-72
2021/08/15 05:02:49;;;;;;;10.82;4.85;;;14.50;99.90;;;14.32;100.00;101351.69;4136199;28;20030;-72
2021/08/15 05:04:50;;;;;;;7.72;4.40;;;14.50;99.90;;;14.24;100.00;101361.44;4151903;28;20025;-72
2021/08/15 05:06:51;;;;;;;7.00;3.88;;;14.50;99.90;;;14.21;100.00;101367.91;4136012;28;20026;-72
2021/08/15 05:08:52;;;;;;;8.65;4.80;;;14.40;99.90;;;14.20;100.00;101362.75;4119717;28;20041;-72
2021/08/15 05:10:53;;;;;;;10.85;5.15;;;14.50;99.90;;;14.27;100.00;101359.28;4136033;28;20520;-72
2021/08/15 05:12:54;;;;;;;8.40;3.97;;;14.40;99.90;;;14.34;100.00;101359.47;4119833;28;20043;-72
2021/08/15 05:14:55;;;;;;;13.27;5.18;;;14.50;99.90;;;14.36;100.00;101368.13;4152051;28;20088;-72
2021/08/15 05:16:56;;;;;;;6.65;4.53;;;14.40;99.90;;;14.27;100.00;101369.06;4120894;28;20019;-72
2021/08/15 05:18:57;;;;;;;8.82;4.60;;;14.40;99.90;;;14.27;100.00;101363.75;4119580;28;20031;-72
2021/08/15 05:20:57;;;;;;;10.93;5.05;;;14.40;99.90;;;14.25;100.00;101360.41;4119800;28;20486;-72
2021/08/15 05:22:58;;;;;;;11.68;4.97;;;14.40;99.90;;;14.30;100.00;101374.88;4120856;28;20031;-72
2021/08/15 05:24:59;;;;;;;6.95;4.68;;;14.50;99.90;;;14.19;100.00;101361.09;4150358;28;20037;-72
2021/08/15 05:27:00;;;;;;;10.88;5.22;;;14.50;99.90;;;14.20;100.00;101363.59;4102799;28;20499;-72
2021/08/15 05:29:02;;;;;;;9.18;4.38;;;14.50;99.90;;;14.19;100.00;101363.72;4104793;28;20027;-72
2021/08/15 05:31:04;;;;;;;9.10;4.95;;;14.50;99.90;;;14.30;100.00;101380.19;4103618;28;20118;-72
2021/08/15 05:33:05;;;;;;;9.27;4.20;;;14.50;99.90;;;14.30;100.00;101376.72;4103230;28;20115;-72
2021/08/15 05:35:06;;;;;;;9.95;5.22;;;14.50;99.90;;;14.32;100.00;101375.56;4103303;28;20139;-72
2021/08/15 05:37:07;;;;;;;11.43;5.40;;;14.50;99.90;;;14.42;100.00;101377.25;4103586;28;20027;-72
2021/08/15 05:39:08;;;;;;;15.27;5.93;;;14.50;99.90;;;14.49;100.00;101379.06;4135482;28;20102;-72
2021/08/15 05:41:09;;;;;;;9.63;4.72;;;14.60;99.90;;;14.64;100.00;101387.19;4118873;28;20023;-72
2021/08/15 05:43:10;;;;;;;11.50;5.97;;;14.70;99.90;;;14.70;100.00;101384.69;4119155;28;20051;-72
2021/08/15 05:45:12;;;;;;;8.52;4.72;;;14.80;99.90;;;14.91;100.00;101394.78;4120464;28;20556;-72
2021/08/15 05:47:13;;;;;;;10.55;5.60;;;14.80;99.90;;;14.90;99.45;101398.47;4119234;28;20030;-72
2021/08/15 05:49:14;;;;;;;12.25;5.75;;;14.90;99.90;;;14.98;98.17;101393.13;4120047;28;20034;-72
2021/08/15 05:51:15;;;;;;;11.85;5.07;;;14.90;99.90;;;14.84;98.14;101384.00;4119223;28;20526;-72
2021/08/15 05:53:16;;;;;;;10.15;4.97;;;15.00;99.90;;;14.85;98.51;101398.13;4120296;28;20037;-72
2021/08/15 05:55:18;;;;;;;12.32;6.47;;;15.00;99.90;;;14.90;98.29;101391.31;4119153;28;20502;-72
2021/08/15 05:57:19;;;;;;;11.50;6.75;;;15.00;99.90;;;14.94;97.12;101389.16;4134971;28;20046;-72
2021/08/15 05:59:20;;;;;;;10.93;5.68;;;15.10;99.90;;;15.23;95.98;101405.34;4120386;28;20030;-72
2021/08/15 06:01:21;;;;;;;10.73;5.50;;;15.20;99.90;;;15.17;96.66;101406.03;4120310;28;20051;-72
2021/08/15 06:03:22;;;;;;;8.20;5.47;;;15.30;99.90;;;15.31;95.75;101404.53;4120003;28;20034;-72
2021/08/15 06:05:23;;;;;;;9.50;4.78;;;15.40;99.90;;;15.17;96.47;101413.19;4118943;28;20030;-72
2021/08/15 06:07:24;;;;;;;8.73;5.65;;;15.50;99.90;;;15.30;95.67;101416.97;4119185;28;20045;-72
2021/08/15 06:09:25;;;;;;;11.07;4.93;;;15.50;99.90;;;15.24;96.67;101422.13;4120242;28;20113;-72
2021/08/15 06:11:26;;;;;;;8.13;4.68;;;15.50;99.90;;;15.28;95.37;101424.31;4118928;28;20037;-72
2021/08/15 06:13:27;;;;;;;6.72;4.78;;;15.50;99.90;;;15.16;96.46;101430.97;4119926;28;20035;-72
2021/08/15 06:15:28;;;;;;;6.78;4.97;;;15.60;99.90;;;15.09;96.80;101434.47;4102937;28;20576;-72
2021/08/15 06:17:29;;;;;;;6.32;4.80;;;15.50;99.90;;;14.97;98.31;101441.94;4118938;28;20033;-71
2021/08/15 06:19:30;;;;;;;8.85;4.95;;;15.50;99.90;;;15.05;98.48;101434.00;4118587;28;20035;-71
2021/08/15 06:21:31;;;;;;;6.97;5.20;;;15.50;99.90;;;14.92;98.32;101442.47;4134943;28;20027;-71
2021/08/15 06:23:32;;;;;;;6.78;5.30;;;15.50;99.90;;;14.78;99.68;101442.31;4119003;28;20384;-71
2021/08/15 06:25:33;;;;;;;7.55;4.95;;;15.50;99.90;;;14.99;100.00;101442.63;4120032;28;20097;-71
2021/08/15 06:27:34;;;;;;;10.55;5.43;;;15.50;99.90;;;15.20;99.18;101445.56;4118874;28;20042;-71
2021/08/15 06:29:35;;;;;;;6.50;4.85;;;15.60;99.90;;;15.24;98.94;101436.25;4134730;28;20038;-71
2021/08/15 06:31:36;;;;;;;9.98;5.90;;;15.70;99.90;;;15.31;98.38;101439.91;4119978;28;20150;-71
2021/08/15 06:33:37;;;;;;;7.13;5.07;;;15.80;99.90;;;15.36;99.12;101448.19;4119672;28;20035;-71
2021/08/15 06:35:38;;;;;;;8.57;6.57;;;15.80;99.90;;;15.43;98.13;101435.91;4118801;28;20042;-72
2021/08/15 06:37:39;;;;;;;6.18;4.82;;;15.90;99.90;;;15.53;98.58;101440.22;4134732;28;20019;-71
2021/08/15 06:39:40;;;;;;;6.97;5.60;;;16.00;99.90;;;15.66;97.26;101444.00;4134327;28;20029;-72
2021/08/15 06:41:41;;;;;;;5.88;4.75;;;16.10;99.90;;;15.77;97.12;101434.81;4108291;28;20427;-72
2021/08/15 06:43:42;;;;;;;7.55;5.38;;;16.20;99.90;;;15.85;98.12;101434.78;4118748;28;20053;-72
2021/08/15 06:45:44;;;;;;;6.95;5.50;;;16.40;99.90;;;15.99;96.67;101440.19;4119833;28;20034;-72
2021/08/15 06:47:46;;;;;;;6.82;5.28;;;16.40;99.90;;;16.00;97.72;101449.00;4118541;28;20034;-72
2021/08/15 06:49:46;;;;;;;6.63;5.53;;;16.50;99.90;;;15.84;97.41;101438.44;4118289;28;20027;-71
2021/08/15 06:51:48;;;;;;;6.55;5.40;;;16.50;99.90;;;15.85;97.56;101438.28;4118597;28;20027;-72
2021/08/15 06:53:49;;;;;;;6.75;5.53;;;16.60;99.90;;;15.89;98.06;101434.25;4134488;28;20121;-72
2021/08/15 06:55:50;;;;;;;5.88;4.72;;;16.60;99.90;;;15.95;97.91;101438.88;4119554;28;20054;-72
2021/08/15 06:57:51;;;;;;;5.80;4.43;;;16.60;99.90;;;16.19;97.03;101445.88;4118576;28;20023;-72
2021/08/15 06:59:53;;;;;;;6.80;4.82;;;16.70;99.90;;;16.16;96.72;101438.25;4102486;29;20027;-72
2021/08/15 07:01:54;;;;;;;5.20;4.60;;;16.80;99.90;;;16.34;96.43;101433.50;4118529;28;20022;-72
2021/08/15 07:03:54;;;;;;;6.57;5.28;;;16.90;99.90;;;16.43;96.08;101442.25;4118050;28;20023;-71
2021/08/15 07:05:56;;;;;;;6.05;4.28;;;17.00;99.90;;;16.50;96.17;101446.69;4119750;28;20031;-72
2021/08/15 07:07:57;;;;;;;6.28;4.88;;;17.10;99.90;;;16.52;96.62;101441.19;4118515;28;20029;-71
2021/08/15 07:09:58;;;;;;;7.00;5.57;;;17.20;99.90;;;16.61;95.70;101456.13;4118305;28;20031;-71
2021/08/15 07:11:59;;;;;;;7.50;5.72;;;17.30;99.90;;;16.61;95.97;101442.81;4118324;28;20035;-71
2021/08/15 07:14:00;;;;;;;6.78;5.22;;;17.40;99.90;;;16.69;95.46;101447.25;4134680;28;20038;-71
2021/08/15 07:16:02;;;;;;;7.88;6.13;;;17.40;99.90;;;16.77;95.12;101449.84;4118425;28;20109;-71
2021/08/15 07:18:04;;;;;;;7.43;5.47;;;17.50;99.90;;;16.78;94.99;101451.53;4134313;28;20479;-71
2021/08/15 07:20:07;;;;;;;6.55;5.05;;;17.50;99.90;;;16.85;95.84;101455.94;4101823;28;20031;-72
2021/08/15 07:22:08;;;;;;;6.22;5.20;;;17.50;99.90;;;16.93;95.04;101449.72;4118350;28;20162;-72
2021/08/15 07:24:08;;;;;;;8.82;5.57;;;17.60;99.90;;;16.92;95.91;101451.56;4119478;28;20023;-72
2021/08/15 07:26:09;;;;;;;5.65;4.95;;;17.70;99.90;;;17.02;96.16;101454.78;4118327;28;20041;-72
2021/08/15 07:28:10;;;;;;;6.00;5.07;;;17.80;99.90;;;17.20;94.82;101446.47;4118195;28;20035;-72
2021/08/15 07:30:13;;;;;;;7.75;5.68;;;17.90;99.90;;;17.24;94.11;101434.41;4118105;28;20027;-72
2021/08/15 07:32:14;;;;;;;7.38;4.95;;;18.00;99.90;;;17.38;93.82;101452.25;4118256;28;20069;-72
2021/08/15 07:34:14;;;;;;;6.88;5.35;;;18.10;99.90;;;17.40;93.46;101447.59;4101972;29;20039;-72
2021/08/15 07:36:15;;;;;;;8.27;5.03;;;18.10;99.90;;;17.54;93.86;101453.94;4119052;28;20031;-72
2021/08/15 07:38:18;;;;;;;6.85;5.88;;;18.20;99.90;;;17.36;95.26;101448.13;4118127;28;20030;-71
2021/08/15 07:40:19;;;;;;;5.32;4.50;;;18.30;99.90;;;17.53;94.52;101439.75;4134198;28;20050;-71
2021/08/15 07:42:20;;;;;;;7.28;5.32;;;18.40;99.90;;;17.55;93.95;101442.28;4119273;28;20050;-71
2021/08/15 07:44:23;;;;;;;6.28;4.88;;;18.40;99.90;;;17.72;95.07;101441.09;4118096;28;20027;-71
2021/08/15 07:46:24;;;;;;;6.93;5.10;;;18.50;99.90;;;17.76;94.71;101436.19;4134211;28;20035;-72
2021/08/15 07:48:25;;;;;;;5.53;4.90;;;18.60;99.90;;;17.85;95.27;101429.75;4119103;28;20035;-72
2021/08/15 07:50:28;;;;;;;6.53;4.82;;;18.70;99.90;;;17.90;94.99;101438.03;4120056;28;20454;-72
2021/08/15 07:52:29;;;;;;;6.22;5.07;;;18.80;99.90;;;18.10;94.21;101439.91;4153083;28;20117;-72
2021/08/15 07:54:30;;;;;;;7.45;5.35;;;18.90;99.90;;;18.29;93.85;101437.66;4137203;28;20496;-71
2021/08/15 07:56:31;;;;;;;9.43;4.93;;;19.10;99.90;;;18.33;93.45;101434.44;4121041;28;20554;-71
2021/08/15 07:58:32;;;;;;;6.13;4.72;;;19.30;99.90;;;18.43;93.74;101434.13;4137048;28;20033;-72
2021/08/15 08:00:33;;;;;;;5.50;3.95;;;19.40;99.90;;;18.53;93.68;101439.97;4122000;28;20078;-72
2021/08/15 08:02:34;;;;;;;4.50;3.55;;;19.40;99.90;;;18.56;92.98;101434.25;4122132;28;20066;-72
2021/08/15 08:04:37;;;;;;;6.25;4.00;;;19.50;99.90;;;18.62;93.21;101434.31;4136724;28;20026;-72
2021/08/15 08:06:38;;;;;;;4.72;3.50;;;19.50;99.90;;;18.81;92.87;101430.19;4136796;28;20030;-72
2021/08/15 08:08:39;;;;;;;7.00;3.45;;;19.60;99.90;;;18.91;92.07;101428.00;4152999;28;20033;-72
2021/08/15 08:10:41;;;;;;;5.43;3.00;;;19.70;99.90;;;19.04;92.67;101422.75;4136918;28;20419;-72
2021/08/15 08:12:45;;;;;;;4.20;2.72;;;19.80;99.90;;;19.22;91.92;101431.13;4121847;28;20035;-72
2021/08/15 08:14:47;;;;;;;5.18;3.20;;;20.00;99.90;;;19.32;91.65;101425.41;4120636;28;20055;-72
2021/08/15 08:16:48;;;;;;;2.58;2.20;;;20.20;99.90;;;19.40;89.91;101422.59;4120493;28;20533;-72
2021/08/15 08:18:50;;;;;;;2.85;1.52;;;20.40;99.90;;;19.51;90.06;101424.72;4120342;28;20062;-73
2021/08/15 08:20:52;;;;;;;3.10;1.95;;;20.50;99.90;;;19.63;89.72;101428.50;4121987;28;20391;-72
2021/08/15 08:22:53;;;;;;;2.13;1.40;;;20.70;99.90;;;19.40;89.64;101427.97;4120762;28;20026;-71